Startpagina
METAR-TAF:

METAR-TAF

Vliegvelden :

Internationale luchthaven Soekarno-Hatta

Jakarta, Java, Indonesië

breedte: 06-07S, lengte: 106-39E, hoogte: 8 m

Actueel weer

Dit bericht is 43 minuten geleden gemaakt, om 03:00 UTC
Wind 6 kt uit het oosten
Temperatuur 30°C
Vochtigheid 70%
Druk 1012 hPa
Zicht: 7000 m
Weinig wolken op 2000 ft

METAR: WIII 130300Z 08006KT 7000 FEW020 30/24 Q1012 NOSIG

Tijdstip: 10:43 (03:43 UTC)

Verwachting

Dit bericht is 4 uur en het 43 minuten geleden gemaakt, om 23:00 UTC
Verwachting geldig van 13 om 00 UTC tot 14 om 06 UTC
Wind 3 kt uit variabele richting
Zicht: 9000 m
Weinig wolken op 2000 ft
Wijzigt naar
van 13 om 02 UTC tot 13 om 04 UTC
Wind 10 kt uit het noordnoordoosten
Wijzigt naar
van 13 om 12 UTC tot 13 om 14 UTC
Wind 3 kt uit het zuiden

TAF: WIII 122300Z 1300/1406 VRB03KT 9000 FEW020 BECMG 1302/1304 03010KT BECMG 1312/1314 17003KT

Waarnemingen en weersverwachtingen van meer dan 4000 vliegvelden (METAR en TAF).

De beschikbare stations zijn de gele en rode punten op de kaart.

Ga met uw muis naar het station om de naam te zien.

Klik dan om waarnemingen en weersverwachtingen te zien.

kaart wijzigen: klik op de groene knoppen met een zwart kruis om in te zoomen, op de groene knop met een streepje om uit te zoomen of op de groene pijlen voor aangrenzende kaarten.


METAR-TAF: